sensor_id;sensor_type;location;lat;lon;timestamp;pressure;altitude;pressure_sealevel;temperature;humidity
56052;BME280;41919;42.648;23.384;2023-09-19T00:00:58;94972.59;;;15.88;93.35
56052;BME280;41919;42.648;23.384;2023-09-19T00:03:23;94967.50;;;15.75;95.29
56052;BME280;41919;42.648;23.384;2023-09-19T00:05:50;94972.84;;;15.68;96.36
56052;BME280;41919;42.648;23.384;2023-09-19T00:08:15;94965.97;;;15.67;100.00
56052;BME280;41919;42.648;23.384;2023-09-19T00:10:42;94908.75;;;15.33;98.16
56052;BME280;41919;42.648;23.384;2023-09-19T00:13:09;94913.66;;;15.29;98.28
56052;BME280;41919;42.648;23.384;2023-09-19T00:15:43;94927.16;;;15.33;99.02
56052;BME280;41919;42.648;23.384;2023-09-19T00:18:14;94968.94;;;15.59;99.89
56052;BME280;41919;42.648;23.384;2023-09-19T00:20:41;94970.94;;;15.45;100.00
56052;BME280;41919;42.648;23.384;2023-09-19T00:23:08;94963.94;;;15.39;100.00
56052;BME280;41919;42.648;23.384;2023-09-19T00:25:34;94976.47;;;15.25;100.00
56052;BME280;41919;42.648;23.384;2023-09-19T00:28:06;94971.88;;;15.21;100.00
56052;BME280;41919;42.648;23.384;2023-09-19T00:30:33;94925.50;;;14.89;100.00
56052;BME280;41919;42.648;23.384;2023-09-19T00:32:58;94965.91;;;15.14;100.00
56052;BME280;41919;42.648;23.384;2023-09-19T00:35:24;94953.84;;;15.06;100.00
56052;BME280;41919;42.648;23.384;2023-09-19T00:37:50;94964.22;;;15.19;100.00
56052;BME280;41919;42.648;23.384;2023-09-19T00:40:15;94963.53;;;15.24;100.00
56052;BME280;41919;42.648;23.384;2023-09-19T00:42:42;94944.63;;;15.15;100.00
56052;BME280;41919;42.648;23.384;2023-09-19T00:45:09;94946.34;;;15.21;100.00
56052;BME280;41919;42.648;23.384;2023-09-19T00:47:43;94959.50;;;15.40;100.00
56052;BME280;41919;42.648;23.384;2023-09-19T00:50:09;94906.81;;;15.09;100.00
56052;BME280;41919;42.648;23.384;2023-09-19T00:52:39;94896.41;;;14.84;100.00
56052;BME280;41919;42.648;23.384;2023-09-19T00:55:09;94904.31;;;14.84;100.00
56052;BME280;41919;42.648;23.384;2023-09-19T00:57:36;94942.00;;;14.97;100.00
56052;BME280;41919;42.648;23.384;2023-09-19T01:00:04;94934.22;;;14.90;100.00
56052;BME280;41919;42.648;23.384;2023-09-19T01:02:32;94944.28;;;14.93;100.00
56052;BME280;41919;42.648;23.384;2023-09-19T01:04:58;94895.69;;;14.59;100.00
56052;BME280;41919;42.648;23.384;2023-09-19T01:07:25;94947.69;;;14.94;100.00
56052;BME280;41919;42.648;23.384;2023-09-19T01:09:51;94929.00;;;14.83;100.00
56052;BME280;41919;42.648;23.384;2023-09-19T01:12:24;94915.44;;;14.68;100.00
56052;BME280;41919;42.648;23.384;2023-09-19T01:15:02;94936.31;;;14.81;100.00
56052;BME280;41919;42.648;23.384;2023-09-19T01:18:00;94953.41;;;14.90;100.00
56052;BME280;41919;42.648;23.384;2023-09-19T01:20:40;94903.19;;;14.55;100.00
56052;BME280;41919;42.648;23.384;2023-09-19T01:23:32;94954.00;;;14.93;100.00
56052;BME280;41919;42.648;23.384;2023-09-19T01:29:07;94909.28;;;14.74;100.00
56052;BME280;41919;42.648;23.384;2023-09-19T01:31:40;94958.06;;;15.07;100.00
56052;BME280;41919;42.648;23.384;2023-09-19T01:34:07;94953.75;;;15.13;100.00
56052;BME280;41919;42.648;23.384;2023-09-19T01:36:37;94958.34;;;15.17;100.00
56052;BME280;41919;42.648;23.384;2023-09-19T01:39:07;94948.41;;;15.19;100.00
56052;BME280;41919;42.648;23.384;2023-09-19T01:41:56;94937.88;;;15.19;100.00
56052;BME280;41919;42.648;23.384;2023-09-19T01:44:35;94938.13;;;15.29;100.00
56052;BME280;41919;42.648;23.384;2023-09-19T01:47:04;94790.00;;;14.31;100.00
56052;BME280;41919;42.648;23.384;2023-09-19T01:50:02;94942.28;;;15.37;100.00
56052;BME280;41919;42.648;23.384;2023-09-19T01:52:27;94935.78;;;15.40;100.00
56052;BME280;41919;42.648;23.384;2023-09-19T01:55:01;94882.63;;;15.01;100.00
56052;BME280;41919;42.648;23.384;2023-09-19T01:57:48;94916.34;;;15.22;100.00
56052;BME280;41919;42.648;23.384;2023-09-19T02:00:16;94910.41;;;15.15;100.00
56052;BME280;41919;42.648;23.384;2023-09-19T02:02:47;94884.91;;;14.97;100.00
56052;BME280;41919;42.648;23.384;2023-09-19T02:05:13;94915.94;;;15.07;100.00
56052;BME280;41919;42.648;23.384;2023-09-19T02:07:46;94956.00;;;15.27;100.00
56052;BME280;41919;42.648;23.384;2023-09-19T02:10:12;94957.94;;;15.32;100.00
56052;BME280;41919;42.648;23.384;2023-09-19T02:12:37;94911.19;;;15.16;100.00
56052;BME280;41919;42.648;23.384;2023-09-19T02:15:03;94953.69;;;15.49;100.00
56052;BME280;41919;42.648;23.384;2023-09-19T02:17:32;94933.16;;;15.40;100.00
56052;BME280;41919;42.648;23.384;2023-09-19T02:19:57;94948.84;;;15.46;100.00
56052;BME280;41919;42.648;23.384;2023-09-19T02:22:24;94952.28;;;15.47;100.00
56052;BME280;41919;42.648;23.384;2023-09-19T02:24:50;94907.81;;;15.27;100.00
56052;BME280;41919;42.648;23.384;2023-09-19T02:27:16;94953.56;;;15.56;100.00
56052;BME280;41919;42.648;23.384;2023-09-19T02:29:42;94954.00;;;15.53;100.00
56052;BME280;41919;42.648;23.384;2023-09-19T02:32:08;94942.69;;;15.53;100.00
56052;BME280;41919;42.648;23.384;2023-09-19T02:34:35;94926.06;;;15.52;100.00
56052;BME280;41919;42.648;23.384;2023-09-19T02:37:04;94935.69;;;15.46;100.00
56052;BME280;41919;42.648;23.384;2023-09-19T02:39:30;94886.13;;;15.13;100.00
56052;BME280;41919;42.648;23.384;2023-09-19T02:41:56;94923.28;;;15.35;100.00
56052;BME280;41919;42.648;23.384;2023-09-19T02:44:21;94908.25;;;15.24;100.00
56052;BME280;41919;42.648;23.384;2023-09-19T02:46:49;94865.69;;;14.97;100.00
56052;BME280;41919;42.648;23.384;2023-09-19T02:49:14;94882.56;;;15.07;100.00
56052;BME280;41919;42.648;23.384;2023-09-19T02:51:40;94921.97;;;15.26;100.00
56052;BME280;41919;42.648;23.384;2023-09-19T02:54:05;94912.56;;;15.18;100.00
56052;BME280;41919;42.648;23.384;2023-09-19T02:56:31;94900.13;;;14.95;100.00
56052;BME280;41919;42.648;23.384;2023-09-19T02:58:57;94901.38;;;14.74;100.00
56052;BME280;41919;42.648;23.384;2023-09-19T03:01:23;94905.53;;;14.82;100.00
56052;BME280;41919;42.648;23.384;2023-09-19T03:03:49;94900.81;;;14.72;100.00
56052;BME280;41919;42.648;23.384;2023-09-19T03:06:15;94896.13;;;14.56;100.00
56052;BME280;41919;42.648;23.384;2023-09-19T03:08:41;94881.44;;;14.66;100.00
56052;BME280;41919;42.648;23.384;2023-09-19T03:11:10;94853.22;;;14.55;100.00
56052;BME280;41919;42.648;23.384;2023-09-19T03:13:36;94855.22;;;14.60;100.00
56052;BME280;41919;42.648;23.384;2023-09-19T03:16:06;94832.28;;;14.48;100.00
56052;BME280;41919;42.648;23.384;2023-09-19T03:18:33;94874.78;;;14.82;100.00
56052;BME280;41919;42.648;23.384;2023-09-19T03:20:59;94840.97;;;14.67;100.00
56052;BME280;41919;42.648;23.384;2023-09-19T03:23:28;94895.03;;;15.12;100.00
56052;BME280;41919;42.648;23.384;2023-09-19T03:25:54;94895.03;;;15.12;100.00
56052;BME280;41919;42.648;23.384;2023-09-19T03:28:21;94854.38;;;14.96;100.00
56052;BME280;41919;42.648;23.384;2023-09-19T03:31:00;94853.25;;;15.04;100.00
56052;BME280;41919;42.648;23.384;2023-09-19T03:33:26;94879.31;;;15.36;100.00
56052;BME280;41919;42.648;23.384;2023-09-19T03:35:54;94872.06;;;15.19;100.00
56052;BME280;41919;42.648;23.384;2023-09-19T03:38:20;94899.94;;;15.39;100.00
56052;BME280;41919;42.648;23.384;2023-09-19T03:40:47;94852.22;;;15.05;100.00
56052;BME280;41919;42.648;23.384;2023-09-19T03:43:13;94850.63;;;15.04;100.00
56052;BME280;41919;42.648;23.384;2023-09-19T03:45:38;94894.84;;;15.25;100.00
56052;BME280;41919;42.648;23.384;2023-09-19T03:48:09;94900.50;;;15.41;100.00
56052;BME280;41919;42.648;23.384;2023-09-19T03:50:34;94897.88;;;15.41;100.00
56052;BME280;41919;42.648;23.384;2023-09-19T03:53:00;94898.81;;;15.46;100.00
56052;BME280;41919;42.648;23.384;2023-09-19T03:55:25;94849.16;;;15.20;100.00
56052;BME280;41919;42.648;23.384;2023-09-19T03:57:50;94914.19;;;15.61;100.00
56052;BME280;41919;42.648;23.384;2023-09-19T04:00:16;94923.81;;;15.67;100.00
56052;BME280;41919;42.648;23.384;2023-09-19T04:02:46;94873.97;;;15.42;100.00
56052;BME280;41919;42.648;23.384;2023-09-19T04:05:11;94904.22;;;15.63;100.00
56052;BME280;41919;42.648;23.384;2023-09-19T04:07:37;94916.44;;;15.76;100.00
56052;BME280;41919;42.648;23.384;2023-09-19T04:10:03;94916.75;;;15.80;100.00
56052;BME280;41919;42.648;23.384;2023-09-19T04:12:28;94915.75;;;15.81;100.00
56052;BME280;41919;42.648;23.384;2023-09-19T04:14:54;94919.09;;;15.88;100.00
56052;BME280;41919;42.648;23.384;2023-09-19T04:17:19;94911.19;;;15.88;100.00
56052;BME280;41919;42.648;23.384;2023-09-19T04:19:45;94907.50;;;15.89;100.00
56052;BME280;41919;42.648;23.384;2023-09-19T04:22:11;94884.69;;;15.83;100.00
56052;BME280;41919;42.648;23.384;2023-09-19T04:24:38;94933.63;;;16.14;100.00
56052;BME280;41919;42.648;23.384;2023-09-19T04:27:04;94927.22;;;16.22;100.00
56052;BME280;41919;42.648;23.384;2023-09-19T04:29:29;94915.78;;;16.28;100.00
56052;BME280;41919;42.648;23.384;2023-09-19T04:31:55;94927.47;;;16.44;100.00
56052;BME280;41919;42.648;23.384;2023-09-19T04:34:22;94872.31;;;16.31;100.00
56052;BME280;41919;42.648;23.384;2023-09-19T04:36:49;94828.53;;;16.18;100.00
56052;BME280;41919;42.648;23.384;2023-09-19T04:39:14;94922.44;;;16.95;97.52
56052;BME280;41919;42.648;23.384;2023-09-19T04:41:40;94916.09;;;17.08;96.75
56052;BME280;41919;42.648;23.384;2023-09-19T04:44:06;94909.41;;;17.17;94.57
56052;BME280;41919;42.648;23.384;2023-09-19T04:46:33;94911.66;;;17.25;93.12
56052;BME280;41919;42.648;23.384;2023-09-19T04:48:58;94911.53;;;17.32;91.09
56052;BME280;41919;42.648;23.384;2023-09-19T04:51:24;94913.91;;;17.33;90.99
56052;BME280;41919;42.648;23.384;2023-09-19T04:53:51;94914.34;;;17.42;90.09
56052;BME280;41919;42.648;23.384;2023-09-19T04:56:17;94910.28;;;17.51;89.41
56052;BME280;41919;42.648;23.384;2023-09-19T04:58:42;94914.25;;;17.37;89.41
56052;BME280;41919;42.648;23.384;2023-09-19T05:01:08;94864.56;;;17.05;87.76
56052;BME280;41919;42.648;23.384;2023-09-19T05:03:37;94913.00;;;16.99;91.45
56052;BME280;41919;42.648;23.384;2023-09-19T05:06:02;94874.31;;;17.04;89.67
56052;BME280;41919;42.648;23.384;2023-09-19T05:08:28;94908.13;;;16.91;92.63
56052;BME280;41919;42.648;23.384;2023-09-19T05:10:53;94839.44;;;16.62;93.72
56052;BME280;41919;42.648;23.384;2023-09-19T05:13:21;94888.34;;;17.22;91.99
56052;BME280;41919;42.648;23.384;2023-09-19T05:15:48;94881.72;;;17.19;89.67
56052;BME280;41919;42.648;23.384;2023-09-19T05:18:15;94896.28;;;17.68;86.28
56052;BME280;41919;42.648;23.384;2023-09-19T05:20:40;94849.75;;;17.67;84.61
56052;BME280;41919;42.648;23.384;2023-09-19T05:23:06;94875.16;;;17.85;85.22
56052;BME280;41919;42.648;23.384;2023-09-19T05:25:37;94899.41;;;18.15;84.64
56052;BME280;41919;42.648;23.384;2023-09-19T05:28:03;94880.66;;;18.56;81.77
56052;BME280;41919;42.648;23.384;2023-09-19T05:30:31;94899.19;;;19.49;76.93
56052;BME280;41919;42.648;23.384;2023-09-19T05:32:57;94878.34;;;19.58;80.62
56052;BME280;41919;42.648;23.384;2023-09-19T05:35:23;94840.00;;;20.56;77.09
56052;BME280;41919;42.648;23.384;2023-09-19T05:37:52;94794.00;;;21.29;64.74
56052;BME280;41919;42.648;23.384;2023-09-19T05:40:18;94842.34;;;22.34;61.22
56052;BME280;41919;42.648;23.384;2023-09-19T05:42:44;94878.50;;;23.25;56.25
56052;BME280;41919;42.648;23.384;2023-09-19T05:45:10;94878.91;;;23.87;54.01
56052;BME280;41919;42.648;23.384;2023-09-19T05:47:42;94882.66;;;23.86;52.59
56052;BME280;41919;42.648;23.384;2023-09-19T05:50:09;94849.31;;;24.13;51.17
56052;BME280;41919;42.648;23.384;2023-09-19T05:52:38;94880.63;;;24.85;49.54
56052;BME280;41919;42.648;23.384;2023-09-19T05:55:07;94831.44;;;24.86;48.15
56052;BME280;41919;42.648;23.384;2023-09-19T05:57:34;94869.97;;;25.04;47.60
56052;BME280;41919;42.648;23.384;2023-09-19T05:59:59;94870.56;;;24.77;48.39
56052;BME280;41919;42.648;23.384;2023-09-19T06:02:24;94854.63;;;24.91;47.68
56052;BME280;41919;42.648;23.384;2023-09-19T06:04:54;94854.13;;;25.32;46.91
56052;BME280;41919;42.648;23.384;2023-09-19T06:07:21;94850.06;;;25.34;46.54
56052;BME280;41919;42.648;23.384;2023-09-19T06:09:47;94861.56;;;26.06;45.07
56052;BME280;41919;42.648;23.384;2023-09-19T06:14:40;94853.97;;;26.27;43.94
